sensor_id;sensor_type;location;lat;lon;timestamp;P1;durP1;ratioP1;P2;durP2;ratioP2
70420;SDS011;57848;51.938;15.520;2023-11-19T00:01:34;33.03;;;13.73;;
70420;SDS011;57848;51.938;15.520;2023-11-19T00:03:59;34.50;;;14.47;;
70420;SDS011;57848;51.938;15.520;2023-11-19T00:06:25;30.20;;;14.03;;
70420;SDS011;57848;51.938;15.520;2023-11-19T00:08:50;33.70;;;13.27;;
70420;SDS011;57848;51.938;15.520;2023-11-19T00:11:16;30.48;;;13.50;;
70420;SDS011;57848;51.938;15.520;2023-11-19T00:13:42;33.33;;;13.73;;
70420;SDS011;57848;51.938;15.520;2023-11-19T00:16:07;33.55;;;14.48;;
70420;SDS011;57848;51.938;15.520;2023-11-19T00:18:34;30.40;;;13.53;;
70420;SDS011;57848;51.938;15.520;2023-11-19T00:21:01;31.58;;;13.77;;
70420;SDS011;57848;51.938;15.520;2023-11-19T00:23:27;30.38;;;13.52;;
70420;SDS011;57848;51.938;15.520;2023-11-19T00:25:52;30.97;;;13.40;;
70420;SDS011;57848;51.938;15.520;2023-11-19T00:28:18;34.80;;;13.90;;
70420;SDS011;57848;51.938;15.520;2023-11-19T00:30:43;29.93;;;13.43;;
70420;SDS011;57848;51.938;15.520;2023-11-19T00:33:08;34.20;;;14.00;;
70420;SDS011;57848;51.938;15.520;2023-11-19T00:35:34;31.93;;;15.40;;
70420;SDS011;57848;51.938;15.520;2023-11-19T00:37:59;28.00;;;12.67;;
70420;SDS011;57848;51.938;15.520;2023-11-19T00:40:25;30.70;;;13.67;;
70420;SDS011;57848;51.938;15.520;2023-11-19T00:42:51;29.60;;;13.90;;
70420;SDS011;57848;51.938;15.520;2023-11-19T00:45:16;27.47;;;12.83;;
70420;SDS011;57848;51.938;15.520;2023-11-19T00:47:42;30.90;;;13.57;;
70420;SDS011;57848;51.938;15.520;2023-11-19T00:50:08;27.95;;;13.18;;
70420;SDS011;57848;51.938;15.520;2023-11-19T00:52:37;31.92;;;13.40;;
70420;SDS011;57848;51.938;15.520;2023-11-19T00:55:04;28.23;;;12.80;;
70420;SDS011;57848;51.938;15.520;2023-11-19T00:57:30;28.83;;;13.18;;
70420;SDS011;57848;51.938;15.520;2023-11-19T00:59:58;29.23;;;13.82;;
70420;SDS011;57848;51.938;15.520;2023-11-19T01:02:24;28.35;;;12.38;;
70420;SDS011;57848;51.938;15.520;2023-11-19T01:04:49;30.07;;;13.17;;
70420;SDS011;57848;51.938;15.520;2023-11-19T01:07:15;31.13;;;13.00;;
70420;SDS011;57848;51.938;15.520;2023-11-19T01:09:44;27.05;;;12.35;;
70420;SDS011;57848;51.938;15.520;2023-11-19T01:12:09;30.98;;;13.32;;
70420;SDS011;57848;51.938;15.520;2023-11-19T01:14:35;30.03;;;13.17;;
70420;SDS011;57848;51.938;15.520;2023-11-19T01:17:01;29.50;;;13.00;;
70420;SDS011;57848;51.938;15.520;2023-11-19T01:19:27;31.27;;;13.10;;
70420;SDS011;57848;51.938;15.520;2023-11-19T01:21:53;27.37;;;12.63;;
70420;SDS011;57848;51.938;15.520;2023-11-19T01:24:19;28.95;;;12.70;;
70420;SDS011;57848;51.938;15.520;2023-11-19T01:26:45;28.52;;;13.13;;
70420;SDS011;57848;51.938;15.520;2023-11-19T01:29:12;28.77;;;12.35;;
70420;SDS011;57848;51.938;15.520;2023-11-19T01:31:40;30.90;;;13.60;;
70420;SDS011;57848;51.938;15.520;2023-11-19T01:34:06;28.67;;;12.38;;
70420;SDS011;57848;51.938;15.520;2023-11-19T01:36:32;28.27;;;12.68;;
70420;SDS011;57848;51.938;15.520;2023-11-19T01:38:57;28.63;;;12.90;;
70420;SDS011;57848;51.938;15.520;2023-11-19T01:41:23;31.80;;;12.60;;
70420;SDS011;57848;51.938;15.520;2023-11-19T01:43:50;28.90;;;12.70;;
70420;SDS011;57848;51.938;15.520;2023-11-19T01:46:15;28.20;;;12.43;;
70420;SDS011;57848;51.938;15.520;2023-11-19T01:48:42;28.55;;;12.55;;
70420;SDS011;57848;51.938;15.520;2023-11-19T01:51:10;29.33;;;11.80;;
70420;SDS011;57848;51.938;15.520;2023-11-19T01:53:38;27.45;;;12.15;;
70420;SDS011;57848;51.938;15.520;2023-11-19T01:56:06;27.55;;;12.15;;
70420;SDS011;57848;51.938;15.520;2023-11-19T01:58:35;28.47;;;12.90;;
70420;SDS011;57848;51.938;15.520;2023-11-19T02:01:01;27.77;;;12.32;;
70420;SDS011;57848;51.938;15.520;2023-11-19T02:03:30;28.23;;;11.88;;
70420;SDS011;57848;51.938;15.520;2023-11-19T02:05:58;28.83;;;12.10;;
70420;SDS011;57848;51.938;15.520;2023-11-19T02:08:24;25.77;;;11.13;;
70420;SDS011;57848;51.938;15.520;2023-11-19T02:10:51;31.30;;;12.83;;
70420;SDS011;57848;51.938;15.520;2023-11-19T02:13:18;28.88;;;12.13;;
70420;SDS011;57848;51.938;15.520;2023-11-19T02:15:43;29.08;;;12.02;;
70420;SDS011;57848;51.938;15.520;2023-11-19T02:20:50;29.73;;;13.20;;
70420;SDS011;57848;51.938;15.520;2023-11-19T02:23:17;31.65;;;12.82;;
70420;SDS011;57848;51.938;15.520;2023-11-19T02:25:47;29.23;;;12.38;;
70420;SDS011;57848;51.938;15.520;2023-11-19T02:28:31;24.53;;;11.53;;
70420;SDS011;57848;51.938;15.520;2023-11-19T02:30:58;32.55;;;12.13;;
70420;SDS011;57848;51.938;15.520;2023-11-19T02:33:23;27.60;;;12.15;;
70420;SDS011;57848;51.938;15.520;2023-11-19T02:35:49;29.58;;;12.98;;
70420;SDS011;57848;51.938;15.520;2023-11-19T02:38:16;30.90;;;14.07;;
70420;SDS011;57848;51.938;15.520;2023-11-19T02:40:41;28.00;;;13.20;;
70420;SDS011;57848;51.938;15.520;2023-11-19T02:43:06;29.90;;;12.93;;
70420;SDS011;57848;51.938;15.520;2023-11-19T02:45:33;30.70;;;14.13;;
70420;SDS011;57848;51.938;15.520;2023-11-19T02:47:59;27.00;;;11.60;;
70420;SDS011;57848;51.938;15.520;2023-11-19T02:50:28;24.30;;;11.27;;
70420;SDS011;57848;51.938;15.520;2023-11-19T02:52:54;25.63;;;11.40;;
70420;SDS011;57848;51.938;15.520;2023-11-19T02:55:23;26.27;;;11.50;;
70420;SDS011;57848;51.938;15.520;2023-11-19T02:57:49;28.23;;;11.50;;
70420;SDS011;57848;51.938;15.520;2023-11-19T03:00:20;27.67;;;12.20;;
70420;SDS011;57848;51.938;15.520;2023-11-19T03:02:56;25.27;;;11.98;;
70420;SDS011;57848;51.938;15.520;2023-11-19T03:05:30;24.47;;;10.63;;
70420;SDS011;57848;51.938;15.520;2023-11-19T03:07:55;25.80;;;11.50;;
70420;SDS011;57848;51.938;15.520;2023-11-19T03:10:21;22.65;;;10.13;;
70420;SDS011;57848;51.938;15.520;2023-11-19T03:12:47;22.93;;;10.77;;
70420;SDS011;57848;51.938;15.520;2023-11-19T03:15:12;24.43;;;10.63;;
70420;SDS011;57848;51.938;15.520;2023-11-19T03:17:38;21.90;;;10.53;;
70420;SDS011;57848;51.938;15.520;2023-11-19T03:20:05;24.60;;;10.48;;
70420;SDS011;57848;51.938;15.520;2023-11-19T03:22:32;24.20;;;11.30;;
70420;SDS011;57848;51.938;15.520;2023-11-19T03:25:00;26.08;;;10.48;;
70420;SDS011;57848;51.938;15.520;2023-11-19T03:27:26;24.17;;;10.50;;
70420;SDS011;57848;51.938;15.520;2023-11-19T03:29:51;19.23;;;8.87;;
70420;SDS011;57848;51.938;15.520;2023-11-19T03:32:17;21.37;;;9.70;;
70420;SDS011;57848;51.938;15.520;2023-11-19T03:34:42;26.10;;;10.90;;
70420;SDS011;57848;51.938;15.520;2023-11-19T03:37:08;21.80;;;10.23;;
70420;SDS011;57848;51.938;15.520;2023-11-19T03:39:34;25.33;;;10.60;;
70420;SDS011;57848;51.938;15.520;2023-11-19T03:41:59;21.63;;;10.13;;
70420;SDS011;57848;51.938;15.520;2023-11-19T03:44:25;21.10;;;9.77;;
70420;SDS011;57848;51.938;15.520;2023-11-19T03:46:52;21.05;;;9.75;;
70420;SDS011;57848;51.938;15.520;2023-11-19T03:49:17;24.27;;;10.73;;
70420;SDS011;57848;51.938;15.520;2023-11-19T03:51:43;21.95;;;9.10;;
70420;SDS011;57848;51.938;15.520;2023-11-19T03:54:09;24.07;;;9.83;;
70420;SDS011;57848;51.938;15.520;2023-11-19T03:56:34;20.55;;;9.15;;
70420;SDS011;57848;51.938;15.520;2023-11-19T03:59:00;21.40;;;8.37;;
70420;SDS011;57848;51.938;15.520;2023-11-19T04:01:25;18.73;;;9.10;;
70420;SDS011;57848;51.938;15.520;2023-11-19T04:03:51;22.90;;;9.97;;
70420;SDS011;57848;51.938;15.520;2023-11-19T04:06:16;22.87;;;10.50;;
70420;SDS011;57848;51.938;15.520;2023-11-19T04:08:42;26.63;;;9.73;;
70420;SDS011;57848;51.938;15.520;2023-11-19T04:11:07;19.17;;;9.30;;
70420;SDS011;57848;51.938;15.520;2023-11-19T04:13:33;23.88;;;10.32;;
70420;SDS011;57848;51.938;15.520;2023-11-19T04:15:59;22.73;;;9.82;;
70420;SDS011;57848;51.938;15.520;2023-11-19T04:18:25;23.90;;;10.13;;
70420;SDS011;57848;51.938;15.520;2023-11-19T04:20:50;22.47;;;9.63;;
70420;SDS011;57848;51.938;15.520;2023-11-19T04:23:16;23.25;;;10.52;;
70420;SDS011;57848;51.938;15.520;2023-11-19T04:25:41;23.33;;;10.13;;
70420;SDS011;57848;51.938;15.520;2023-11-19T04:28:07;23.20;;;10.33;;
70420;SDS011;57848;51.938;15.520;2023-11-19T04:30:33;21.20;;;9.75;;
70420;SDS011;57848;51.938;15.520;2023-11-19T04:32:59;22.60;;;10.20;;
70420;SDS011;57848;51.938;15.520;2023-11-19T04:35:24;23.15;;;10.20;;
70420;SDS011;57848;51.938;15.520;2023-11-19T04:37:51;22.33;;;10.25;;
70420;SDS011;57848;51.938;15.520;2023-11-19T04:40:17;22.23;;;10.73;;
70420;SDS011;57848;51.938;15.520;2023-11-19T04:42:47;23.42;;;10.68;;
70420;SDS011;57848;51.938;15.520;2023-11-19T04:45:13;24.30;;;10.03;;
70420;SDS011;57848;51.938;15.520;2023-11-19T04:47:38;25.73;;;10.67;;
70420;SDS011;57848;51.938;15.520;2023-11-19T04:50:04;21.70;;;10.23;;
70420;SDS011;57848;51.938;15.520;2023-11-19T04:52:30;25.02;;;10.63;;
70420;SDS011;57848;51.938;15.520;2023-11-19T04:54:55;24.17;;;10.37;;
70420;SDS011;57848;51.938;15.520;2023-11-19T04:57:20;23.87;;;11.03;;
70420;SDS011;57848;51.938;15.520;2023-11-19T04:59:46;22.13;;;10.43;;
70420;SDS011;57848;51.938;15.520;2023-11-19T05:02:11;25.80;;;10.20;;
70420;SDS011;57848;51.938;15.520;2023-11-19T05:04:41;24.75;;;11.60;;
70420;SDS011;57848;51.938;15.520;2023-11-19T05:07:08;26.55;;;11.15;;
70420;SDS011;57848;51.938;15.520;2023-11-19T05:09:33;24.17;;;11.70;;
70420;SDS011;57848;51.938;15.520;2023-11-19T05:11:59;25.33;;;11.87;;
70420;SDS011;57848;51.938;15.520;2023-11-19T05:14:24;25.33;;;12.03;;
70420;SDS011;57848;51.938;15.520;2023-11-19T05:16:49;26.45;;;11.63;;
70420;SDS011;57848;51.938;15.520;2023-11-19T05:19:15;25.50;;;10.87;;
70420;SDS011;57848;51.938;15.520;2023-11-19T05:21:43;22.83;;;11.07;;
70420;SDS011;57848;51.938;15.520;2023-11-19T05:24:09;27.63;;;12.98;;
70420;SDS011;57848;51.938;15.520;2023-11-19T05:26:34;27.23;;;12.07;;
70420;SDS011;57848;51.938;15.520;2023-11-19T05:29:00;25.53;;;11.67;;
70420;SDS011;57848;51.938;15.520;2023-11-19T05:31:25;29.45;;;12.50;;
70420;SDS011;57848;51.938;15.520;2023-11-19T05:33:50;26.40;;;11.37;;
70420;SDS011;57848;51.938;15.520;2023-11-19T05:36:16;24.93;;;11.50;;
70420;SDS011;57848;51.938;15.520;2023-11-19T05:38:42;26.42;;;11.52;;
70420;SDS011;57848;51.938;15.520;2023-11-19T05:41:07;27.27;;;11.53;;
70420;SDS011;57848;51.938;15.520;2023-11-19T05:43:33;29.87;;;12.47;;
70420;SDS011;57848;51.938;15.520;2023-11-19T05:45:58;28.53;;;12.63;;
70420;SDS011;57848;51.938;15.520;2023-11-19T05:48:25;23.65;;;10.85;;
70420;SDS011;57848;51.938;15.520;2023-11-19T05:50:51;27.75;;;12.40;;
70420;SDS011;57848;51.938;15.520;2023-11-19T05:53:17;26.47;;;11.77;;
70420;SDS011;57848;51.938;15.520;2023-11-19T05:55:42;26.03;;;11.37;;
70420;SDS011;57848;51.938;15.520;2023-11-19T05:58:19;25.40;;;12.00;;
70420;SDS011;57848;51.938;15.520;2023-11-19T06:00:49;30.48;;;12.25;;
70420;SDS011;57848;51.938;15.520;2023-11-19T06:03:15;27.98;;;12.27;;
70420;SDS011;57848;51.938;15.520;2023-11-19T06:05:41;26.50;;;11.63;;
70420;SDS011;57848;51.938;15.520;2023-11-19T06:08:09;25.45;;;11.88;;
70420;SDS011;57848;51.938;15.520;2023-11-19T06:10:35;27.98;;;12.77;;
70420;SDS011;57848;51.938;15.520;2023-11-19T06:13:00;22.93;;;11.00;;
70420;SDS011;57848;51.938;15.520;2023-11-19T06:15:29;26.83;;;11.02;;
70420;SDS011;57848;51.938;15.520;2023-11-19T06:17:55;27.67;;;11.83;;
70420;SDS011;57848;51.938;15.520;2023-11-19T06:20:20;25.83;;;11.70;;
70420;SDS011;57848;51.938;15.520;2023-11-19T06:22:46;25.60;;;10.73;;
70420;SDS011;57848;51.938;15.520;2023-11-19T06:25:12;27.35;;;11.32;;
70420;SDS011;57848;51.938;15.520;2023-11-19T06:27:40;29.13;;;12.00;;
70420;SDS011;57848;51.938;15.520;2023-11-19T06:30:06;28.17;;;11.13;;
70420;SDS011;57848;51.938;15.520;2023-11-19T06:32:32;27.85;;;12.05;;
70420;SDS011;57848;51.938;15.520;2023-11-19T06:34:58;26.77;;;11.97;;
70420;SDS011;57848;51.938;15.520;2023-11-19T06:37:23;28.57;;;12.37;;
70420;SDS011;57848;51.938;15.520;2023-11-19T06:39:48;24.03;;;10.73;;
70420;SDS011;57848;51.938;15.520;2023-11-19T06:42:14;26.33;;;11.47;;
70420;SDS011;57848;51.938;15.520;2023-11-19T06:44:39;25.53;;;11.77;;
70420;SDS011;57848;51.938;15.520;2023-11-19T06:47:05;30.13;;;11.80;;
70420;SDS011;57848;51.938;15.520;2023-11-19T06:49:31;26.97;;;12.07;;
70420;SDS011;57848;51.938;15.520;2023-11-19T06:51:56;26.88;;;12.63;;
70420;SDS011;57848;51.938;15.520;2023-11-19T06:54:22;26.23;;;11.73;;
70420;SDS011;57848;51.938;15.520;2023-11-19T06:56:48;24.53;;;11.40;;
70420;SDS011;57848;51.938;15.520;2023-11-19T06:59:13;26.02;;;11.23;;
70420;SDS011;57848;51.938;15.520;2023-11-19T07:01:39;25.67;;;12.07;;
70420;SDS011;57848;51.938;15.520;2023-11-19T07:04:10;25.48;;;9.93;;
70420;SDS011;57848;51.938;15.520;2023-11-19T07:06:36;22.85;;;11.45;;
70420;SDS011;57848;51.938;15.520;2023-11-19T07:09:02;25.33;;;10.60;;
70420;SDS011;57848;51.938;15.520;2023-11-19T07:11:40;27.10;;;11.00;;
70420;SDS011;57848;51.938;15.520;2023-11-19T07:14:09;23.88;;;11.50;;
70420;SDS011;57848;51.938;15.520;2023-11-19T07:16:35;26.40;;;11.52;;
70420;SDS011;57848;51.938;15.520;2023-11-19T07:19:02;24.93;;;10.67;;
70420;SDS011;57848;51.938;15.520;2023-11-19T07:21:28;26.20;;;11.07;;
70420;SDS011;57848;51.938;15.520;2023-11-19T07:23:57;27.03;;;11.63;;
70420;SDS011;57848;51.938;15.520;2023-11-19T07:26:22;24.67;;;12.03;;
70420;SDS011;57848;51.938;15.520;2023-11-19T07:28:51;27.67;;;12.20;;
70420;SDS011;57848;51.938;15.520;2023-11-19T07:31:17;23.02;;;10.25;;
70420;SDS011;57848;51.938;15.520;2023-11-19T07:33:45;28.10;;;12.10;;
70420;SDS011;57848;51.938;15.520;2023-11-19T07:36:11;24.67;;;9.90;;
70420;SDS011;57848;51.938;15.520;2023-11-19T07:38:37;22.47;;;10.60;;
70420;SDS011;57848;51.938;15.520;2023-11-19T07:41:03;26.00;;;11.65;;
70420;SDS011;57848;51.938;15.520;2023-11-19T07:43:30;26.15;;;10.85;;
70420;SDS011;57848;51.938;15.520;2023-11-19T07:45:55;26.40;;;10.00;;
70420;SDS011;57848;51.938;15.520;2023-11-19T07:48:21;23.57;;;11.10;;
70420;SDS011;57848;51.938;15.520;2023-11-19T07:50:49;25.35;;;10.77;;
70420;SDS011;57848;51.938;15.520;2023-11-19T07:53:17;25.50;;;11.00;;
70420;SDS011;57848;51.938;15.520;2023-11-19T07:55:42;23.00;;;11.07;;
70420;SDS011;57848;51.938;15.520;2023-11-19T07:58:09;25.65;;;12.00;;
70420;SDS011;57848;51.938;15.520;2023-11-19T08:00:35;24.10;;;11.18;;
70420;SDS011;57848;51.938;15.520;2023-11-19T08:03:01;26.73;;;11.03;;
70420;SDS011;57848;51.938;15.520;2023-11-19T08:05:26;21.13;;;10.23;;
70420;SDS011;57848;51.938;15.520;2023-11-19T08:07:52;23.57;;;10.57;;
70420;SDS011;57848;51.938;15.520;2023-11-19T08:10:18;24.13;;;10.57;;
70420;SDS011;57848;51.938;15.520;2023-11-19T08:12:44;22.80;;;10.82;;
70420;SDS011;57848;51.938;15.520;2023-11-19T08:15:10;21.43;;;9.90;;
70420;SDS011;57848;51.938;15.520;2023-11-19T08:17:35;25.55;;;10.52;;
70420;SDS011;57848;51.938;15.520;2023-11-19T08:20:01;23.05;;;9.77;;
70420;SDS011;57848;51.938;15.520;2023-11-19T08:22:28;22.77;;;10.23;;
70420;SDS011;57848;51.938;15.520;2023-11-19T08:24:53;19.70;;;9.00;;
70420;SDS011;57848;51.938;15.520;2023-11-19T08:27:18;22.03;;;9.87;;
70420;SDS011;57848;51.938;15.520;2023-11-19T08:29:44;25.00;;;9.93;;
70420;SDS011;57848;51.938;15.520;2023-11-19T08:32:09;23.23;;;10.13;;
70420;SDS011;57848;51.938;15.520;2023-11-19T08:34:36;19.97;;;8.63;;
70420;SDS011;57848;51.938;15.520;2023-11-19T08:37:01;20.17;;;9.32;;
70420;SDS011;57848;51.938;15.520;2023-11-19T08:39:26;20.00;;;9.57;;
70420;SDS011;57848;51.938;15.520;2023-11-19T08:41:52;21.33;;;8.80;;
70420;SDS011;57848;51.938;15.520;2023-11-19T08:44:17;19.63;;;8.93;;
70420;SDS011;57848;51.938;15.520;2023-11-19T08:46:50;21.35;;;9.27;;
70420;SDS011;57848;51.938;15.520;2023-11-19T08:49:16;18.83;;;8.57;;
70420;SDS011;57848;51.938;15.520;2023-11-19T08:51:42;19.00;;;8.13;;
70420;SDS011;57848;51.938;15.520;2023-11-19T08:54:08;19.02;;;9.25;;
70420;SDS011;57848;51.938;15.520;2023-11-19T08:56:33;21.93;;;10.37;;
70420;SDS011;57848;51.938;15.520;2023-11-19T08:59:00;20.50;;;8.82;;
70420;SDS011;57848;51.938;15.520;2023-11-19T09:01:26;19.30;;;8.80;;
70420;SDS011;57848;51.938;15.520;2023-11-19T09:03:51;24.43;;;9.30;;
70420;SDS011;57848;51.938;15.520;2023-11-19T09:06:17;18.53;;;8.27;;
70420;SDS011;57848;51.938;15.520;2023-11-19T09:08:42;21.63;;;9.10;;
70420;SDS011;57848;51.938;15.520;2023-11-19T09:11:08;19.70;;;8.63;;
70420;SDS011;57848;51.938;15.520;2023-11-19T09:13:34;22.17;;;9.67;;
70420;SDS011;57848;51.938;15.520;2023-11-19T09:16:00;20.53;;;9.17;;
70420;SDS011;57848;51.938;15.520;2023-11-19T09:18:29;24.40;;;10.30;;
70420;SDS011;57848;51.938;15.520;2023-11-19T09:20:54;20.63;;;8.18;;
70420;SDS011;57848;51.938;15.520;2023-11-19T09:23:20;18.97;;;8.77;;
70420;SDS011;57848;51.938;15.520;2023-11-19T09:25:45;19.48;;;7.82;;
70420;SDS011;57848;51.938;15.520;2023-11-19T09:28:11;17.57;;;8.50;;
70420;SDS011;57848;51.938;15.520;2023-11-19T09:30:36;18.80;;;8.50;;
70420;SDS011;57848;51.938;15.520;2023-11-19T09:33:01;18.23;;;7.80;;
70420;SDS011;57848;51.938;15.520;2023-11-19T09:35:27;17.77;;;7.73;;
70420;SDS011;57848;51.938;15.520;2023-11-19T09:37:52;18.80;;;8.17;;
70420;SDS011;57848;51.938;15.520;2023-11-19T09:40:18;15.50;;;7.20;;
70420;SDS011;57848;51.938;15.520;2023-11-19T09:42:44;18.80;;;6.23;;
70420;SDS011;57848;51.938;15.520;2023-11-19T09:45:15;16.00;;;7.28;;
70420;SDS011;57848;51.938;15.520;2023-11-19T09:47:45;20.10;;;7.57;;
70420;SDS011;57848;51.938;15.520;2023-11-19T09:50:16;19.20;;;8.13;;
70420;SDS011;57848;51.938;15.520;2023-11-19T09:52:43;15.40;;;6.70;;
70420;SDS011;57848;51.938;15.520;2023-11-19T09:55:09;16.20;;;7.37;;
70420;SDS011;57848;51.938;15.520;2023-11-19T09:57:34;17.43;;;7.10;;
70420;SDS011;57848;51.938;15.520;2023-11-19T10:00:03;16.52;;;6.65;;
70420;SDS011;57848;51.938;15.520;2023-11-19T10:02:31;18.52;;;7.80;;
70420;SDS011;57848;51.938;15.520;2023-11-19T10:04:58;20.38;;;7.75;;
70420;SDS011;57848;51.938;15.520;2023-11-19T10:07:26;21.17;;;7.93;;
70420;SDS011;57848;51.938;15.520;2023-11-19T10:09:52;18.83;;;7.40;;
70420;SDS011;57848;51.938;15.520;2023-11-19T10:12:18;18.05;;;6.80;;
70420;SDS011;57848;51.938;15.520;2023-11-19T10:14:43;18.10;;;7.03;;
70420;SDS011;57848;51.938;15.520;2023-11-19T10:17:10;14.82;;;6.30;;
70420;SDS011;57848;51.938;15.520;2023-11-19T10:19:35;15.00;;;6.27;;
70420;SDS011;57848;51.938;15.520;2023-11-19T10:22:02;14.03;;;6.17;;
70420;SDS011;57848;51.938;15.520;2023-11-19T10:24:32;16.88;;;6.97;;
70420;SDS011;57848;51.938;15.520;2023-11-19T10:26:59;19.98;;;7.47;;
70420;SDS011;57848;51.938;15.520;2023-11-19T10:29:25;17.33;;;7.85;;
70420;SDS011;57848;51.938;15.520;2023-11-19T10:32:00;21.13;;;9.13;;
70420;SDS011;57848;51.938;15.520;2023-11-19T10:34:26;18.90;;;7.68;;
70420;SDS011;57848;51.938;15.520;2023-11-19T10:36:52;16.83;;;7.17;;
70420;SDS011;57848;51.938;15.520;2023-11-19T10:39:17;19.85;;;8.23;;
70420;SDS011;57848;51.938;15.520;2023-11-19T10:41:43;19.07;;;9.07;;
70420;SDS011;57848;51.938;15.520;2023-11-19T10:44:08;22.37;;;10.03;;
70420;SDS011;57848;51.938;15.520;2023-11-19T10:46:41;19.70;;;8.90;;
70420;SDS011;57848;51.938;15.520;2023-11-19T10:49:07;16.80;;;7.43;;
70420;SDS011;57848;51.938;15.520;2023-11-19T10:51:33;18.13;;;7.80;;
70420;SDS011;57848;51.938;15.520;2023-11-19T10:54:02;18.23;;;6.88;;
70420;SDS011;57848;51.938;15.520;2023-11-19T10:56:31;14.30;;;7.00;;
70420;SDS011;57848;51.938;15.520;2023-11-19T10:58:58;16.77;;;7.60;;
70420;SDS011;57848;51.938;15.520;2023-11-19T11:01:35;16.80;;;7.90;;
70420;SDS011;57848;51.938;15.520;2023-11-19T11:04:19;15.40;;;7.30;;
70420;SDS011;57848;51.938;15.520;2023-11-19T11:06:48;17.67;;;7.70;;
70420;SDS011;57848;51.938;15.520;2023-11-19T11:09:15;16.20;;;7.10;;
70420;SDS011;57848;51.938;15.520;2023-11-19T11:11:43;15.63;;;7.20;;
70420;SDS011;57848;51.938;15.520;2023-11-19T11:14:15;16.93;;;7.67;;
70420;SDS011;57848;51.938;15.520;2023-11-19T11:16:43;19.10;;;8.38;;
70420;SDS011;57848;51.938;15.520;2023-11-19T11:19:12;15.70;;;7.43;;
70420;SDS011;57848;51.938;15.520;2023-11-19T11:21:39;16.33;;;7.82;;
70420;SDS011;57848;51.938;15.520;2023-11-19T11:29:27;14.88;;;6.93;;
70420;SDS011;57848;51.938;15.520;2023-11-19T11:37:47;14.27;;;6.30;;
70420;SDS011;57848;51.938;15.520;2023-11-19T11:40:16;15.00;;;6.80;;
70420;SDS011;57848;51.938;15.520;2023-11-19T11:42:43;14.82;;;7.53;;
70420;SDS011;57848;51.938;15.520;2023-11-19T11:45:10;15.90;;;8.43;;
70420;SDS011;57848;51.938;15.520;2023-11-19T11:50:12;15.45;;;7.35;;
70420;SDS011;57848;51.938;15.520;2023-11-19T11:57:54;13.90;;;6.38;;
70420;SDS011;57848;51.938;15.520;2023-11-19T12:00:27;11.10;;;5.47;;
70420;SDS011;57848;51.938;15.520;2023-11-19T12:02:55;11.05;;;5.63;;
70420;SDS011;57848;51.938;15.520;2023-11-19T12:05:21;10.87;;;5.73;;
70420;SDS011;57848;51.938;15.520;2023-11-19T12:07:57;13.48;;;6.05;;
70420;SDS011;57848;51.938;15.520;2023-11-19T12:10:26;12.35;;;6.38;;
70420;SDS011;57848;51.938;15.520;2023-11-19T12:12:59;13.85;;;7.13;;
70420;SDS011;57848;51.938;15.520;2023-11-19T12:15:26;12.18;;;6.50;;
70420;SDS011;57848;51.938;15.520;2023-11-19T12:17:53;13.70;;;6.80;;
70420;SDS011;57848;51.938;15.520;2023-11-19T12:20:22;14.23;;;6.65;;
70420;SDS011;57848;51.938;15.520;2023-11-19T12:22:48;14.77;;;6.97;;
70420;SDS011;57848;51.938;15.520;2023-11-19T12:25:16;13.32;;;6.25;;
70420;SDS011;57848;51.938;15.520;2023-11-19T12:27:43;11.55;;;5.97;;
70420;SDS011;57848;51.938;15.520;2023-11-19T12:30:09;10.17;;;4.70;;
70420;SDS011;57848;51.938;15.520;2023-11-19T12:35:10;10.65;;;5.15;;
70420;SDS011;57848;51.938;15.520;2023-11-19T12:40:10;10.60;;;4.40;;
70420;SDS011;57848;51.938;15.520;2023-11-19T12:42:39;11.75;;;4.45;;
70420;SDS011;57848;51.938;15.520;2023-11-19T12:45:06;9.60;;;4.10;;
70420;SDS011;57848;51.938;15.520;2023-11-19T12:47:33;13.52;;;4.05;;
70420;SDS011;57848;51.938;15.520;2023-11-19T12:49:58;12.20;;;4.53;;
70420;SDS011;57848;51.938;15.520;2023-11-19T12:52:24;11.70;;;4.23;;
70420;SDS011;57848;51.938;15.520;2023-11-19T12:54:49;9.93;;;4.07;;
70420;SDS011;57848;51.938;15.520;2023-11-19T12:57:16;14.90;;;4.05;;
70420;SDS011;57848;51.938;15.520;2023-11-19T12:59:53;13.57;;;3.55;;
70420;SDS011;57848;51.938;15.520;2023-11-19T13:02:20;9.93;;;3.47;;
70420;SDS011;57848;51.938;15.520;2023-11-19T13:04:46;9.10;;;3.47;;
70420;SDS011;57848;51.938;15.520;2023-11-19T13:07:11;11.33;;;3.33;;
70420;SDS011;57848;51.938;15.520;2023-11-19T13:09:36;13.07;;;3.27;;
70420;SDS011;57848;51.938;15.520;2023-11-19T13:12:11;15.50;;;3.67;;
70420;SDS011;57848;51.938;15.520;2023-11-19T13:14:39;8.27;;;3.25;;
70420;SDS011;57848;51.938;15.520;2023-11-19T13:17:05;11.33;;;3.97;;
70420;SDS011;57848;51.938;15.520;2023-11-19T13:19:30;10.82;;;3.28;;
70420;SDS011;57848;51.938;15.520;2023-11-19T13:21:56;12.63;;;3.47;;
70420;SDS011;57848;51.938;15.520;2023-11-19T13:24:22;9.02;;;3.47;;
70420;SDS011;57848;51.938;15.520;2023-11-19T13:26:47;12.70;;;3.37;;
70420;SDS011;57848;51.938;15.520;2023-11-19T13:29:13;13.63;;;3.47;;
70420;SDS011;57848;51.938;15.520;2023-11-19T13:31:38;15.57;;;4.07;;
70420;SDS011;57848;51.938;15.520;2023-11-19T13:34:03;11.32;;;3.45;;
70420;SDS011;57848;51.938;15.520;2023-11-19T13:36:32;14.43;;;4.47;;
70420;SDS011;57848;51.938;15.520;2023-11-19T13:38:57;13.15;;;4.07;;
70420;SDS011;57848;51.938;15.520;2023-11-19T13:41:24;12.98;;;3.92;;
70420;SDS011;57848;51.938;15.520;2023-11-19T13:43:50;10.13;;;3.57;;
70420;SDS011;57848;51.938;15.520;2023-11-19T13:46:16;12.90;;;3.80;;
70420;SDS011;57848;51.938;15.520;2023-11-19T13:48:41;14.13;;;3.23;;
70420;SDS011;57848;51.938;15.520;2023-11-19T13:51:07;9.07;;;3.50;;
70420;SDS011;57848;51.938;15.520;2023-11-19T13:53:32;8.57;;;3.40;;
70420;SDS011;57848;51.938;15.520;2023-11-19T13:55:58;16.33;;;3.20;;
70420;SDS011;57848;51.938;15.520;2023-11-19T13:58:23;12.03;;;3.20;;
70420;SDS011;57848;51.938;15.520;2023-11-19T14:00:49;10.88;;;2.65;;
70420;SDS011;57848;51.938;15.520;2023-11-19T14:03:15;11.07;;;2.90;;
70420;SDS011;57848;51.938;15.520;2023-11-19T14:05:41;13.63;;;2.85;;
70420;SDS011;57848;51.938;15.520;2023-11-19T14:08:07;12.60;;;3.13;;
70420;SDS011;57848;51.938;15.520;2023-11-19T14:10:36;10.87;;;2.70;;
70420;SDS011;57848;51.938;15.520;2023-11-19T14:13:08;12.50;;;3.05;;
70420;SDS011;57848;51.938;15.520;2023-11-19T14:15:33;10.77;;;2.80;;
70420;SDS011;57848;51.938;15.520;2023-11-19T14:17:59;14.05;;;3.05;;
70420;SDS011;57848;51.938;15.520;2023-11-19T14:20:24;12.23;;;2.90;;
70420;SDS011;57848;51.938;15.520;2023-11-19T14:22:50;16.75;;;3.38;;
70420;SDS011;57848;51.938;15.520;2023-11-19T14:25:17;13.55;;;3.17;;
70420;SDS011;57848;51.938;15.520;2023-11-19T14:27:43;13.20;;;3.00;;
70420;SDS011;57848;51.938;15.520;2023-11-19T14:30:11;12.25;;;3.10;;
70420;SDS011;57848;51.938;15.520;2023-11-19T14:32:38;17.57;;;3.67;;
70420;SDS011;57848;51.938;15.520;2023-11-19T14:35:05;16.65;;;3.58;;
70420;SDS011;57848;51.938;15.520;2023-11-19T14:37:31;13.38;;;3.40;;
70420;SDS011;57848;51.938;15.520;2023-11-19T14:39:57;13.70;;;3.30;;